sensor_id;sensor_type;location;lat;lon;timestamp;pressure;altitude;pressure_sealevel;temperature;humidity
58239;BME280;44037;55.638;37.356;2023-01-30T00:01:21;98244.75;;;-1.35;95.41
58239;BME280;44037;55.638;37.356;2023-01-30T00:03:50;98237.94;;;-1.36;95.20
58239;BME280;44037;55.638;37.356;2023-01-30T00:06:18;98234.47;;;-1.38;95.39
58239;BME280;44037;55.638;37.356;2023-01-30T00:08:45;98240.31;;;-1.41;95.31
58239;BME280;44037;55.638;37.356;2023-01-30T00:11:14;98241.94;;;-1.43;95.42
58239;BME280;44037;55.638;37.356;2023-01-30T00:13:42;98236.84;;;-1.43;95.38
58239;BME280;44037;55.638;37.356;2023-01-30T00:16:10;98232.63;;;-1.42;95.41
58239;BME280;44037;55.638;37.356;2023-01-30T00:18:38;98227.53;;;-1.42;95.80
58239;BME280;44037;55.638;37.356;2023-01-30T00:21:09;98223.41;;;-1.39;95.53
58239;BME280;44037;55.638;37.356;2023-01-30T00:23:36;98209.91;;;-1.37;95.57
58239;BME280;44037;55.638;37.356;2023-01-30T00:26:04;98205.75;;;-1.35;95.40
58239;BME280;44037;55.638;37.356;2023-01-30T00:28:31;98201.44;;;-1.38;94.94
58239;BME280;44037;55.638;37.356;2023-01-30T00:30:58;98191.22;;;-1.40;95.24
58239;BME280;44037;55.638;37.356;2023-01-30T00:33:26;98198.00;;;-1.39;95.82
58239;BME280;44037;55.638;37.356;2023-01-30T00:35:54;98200.50;;;-1.40;95.44
58239;BME280;44037;55.638;37.356;2023-01-30T00:38:23;98184.41;;;-1.41;94.91
58239;BME280;44037;55.638;37.356;2023-01-30T00:40:50;98186.88;;;-1.42;95.31
58239;BME280;44037;55.638;37.356;2023-01-30T00:43:19;98177.59;;;-1.42;95.25
58239;BME280;44037;55.638;37.356;2023-01-30T00:46:07;98177.59;;;-1.42;95.82
58239;BME280;44037;55.638;37.356;2023-01-30T00:49:04;98180.94;;;-1.43;95.57
58239;BME280;44037;55.638;37.356;2023-01-30T00:51:31;98186.03;;;-1.43;95.69
58239;BME280;44037;55.638;37.356;2023-01-30T00:53:59;98184.31;;;-1.44;94.98
58239;BME280;44037;55.638;37.356;2023-01-30T00:56:26;98177.44;;;-1.46;95.11
58239;BME280;44037;55.638;37.356;2023-01-30T00:58:53;98172.38;;;-1.46;95.79
58239;BME280;44037;55.638;37.356;2023-01-30T01:01:20;98164.81;;;-1.43;95.34
58239;BME280;44037;55.638;37.356;2023-01-30T01:03:47;98170.72;;;-1.44;95.71
58239;BME280;44037;55.638;37.356;2023-01-30T01:06:15;98174.13;;;-1.44;95.83
58239;BME280;44037;55.638;37.356;2023-01-30T01:08:42;98170.78;;;-1.43;95.81
58239;BME280;44037;55.638;37.356;2023-01-30T01:11:10;98164.91;;;-1.42;96.17
58239;BME280;44037;55.638;37.356;2023-01-30T01:13:50;98165.81;;;-1.40;96.01
58239;BME280;44037;55.638;37.356;2023-01-30T01:16:17;98159.06;;;-1.37;95.89
58239;BME280;44037;55.638;37.356;2023-01-30T01:18:44;98156.59;;;-1.36;95.98
58239;BME280;44037;55.638;37.356;2023-01-30T01:21:11;98159.19;;;-1.34;96.38
58239;BME280;44037;55.638;37.356;2023-01-30T01:23:39;98158.38;;;-1.33;96.12
58239;BME280;44037;55.638;37.356;2023-01-30T01:26:06;98147.28;;;-1.35;95.67
58239;BME280;44037;55.638;37.356;2023-01-30T01:28:35;98157.47;;;-1.35;96.42
58239;BME280;44037;55.638;37.356;2023-01-30T01:31:07;98157.47;;;-1.35;96.22
58239;BME280;44037;55.638;37.356;2023-01-30T01:33:34;98152.25;;;-1.39;96.16
58239;BME280;44037;55.638;37.356;2023-01-30T01:36:01;98137.88;;;-1.40;96.05
58239;BME280;44037;55.638;37.356;2023-01-30T01:38:28;98137.03;;;-1.39;96.30
58239;BME280;44037;55.638;37.356;2023-01-30T01:40:55;98134.59;;;-1.35;96.13
58239;BME280;44037;55.638;37.356;2023-01-30T01:43:30;98118.41;;;-1.37;95.58
58239;BME280;44037;55.638;37.356;2023-01-30T01:46:03;98117.47;;;-1.41;95.64
58239;BME280;44037;55.638;37.356;2023-01-30T01:48:34;98101.25;;;-1.45;95.44
58239;BME280;44037;55.638;37.356;2023-01-30T01:51:04;98103.84;;;-1.43;95.86
58239;BME280;44037;55.638;37.356;2023-01-30T01:53:38;98097.91;;;-1.44;95.60
58239;BME280;44037;55.638;37.356;2023-01-30T01:56:07;98098.72;;;-1.45;96.12
58239;BME280;44037;55.638;37.356;2023-01-30T01:58:38;98086.88;;;-1.44;96.00
58239;BME280;44037;55.638;37.356;2023-01-30T02:01:09;98088.56;;;-1.45;95.66
58239;BME280;44037;55.638;37.356;2023-01-30T02:03:40;98089.38;;;-1.46;95.64
58239;BME280;44037;55.638;37.356;2023-01-30T02:06:09;98083.44;;;-1.46;95.84
58239;BME280;44037;55.638;37.356;2023-01-30T02:08:37;98084.28;;;-1.46;96.47
58239;BME280;44037;55.638;37.356;2023-01-30T02:11:08;98081.78;;;-1.44;95.93
58239;BME280;44037;55.638;37.356;2023-01-30T02:13:36;98084.31;;;-1.44;96.00
58239;BME280;44037;55.638;37.356;2023-01-30T02:16:05;98075.00;;;-1.45;95.82
58239;BME280;44037;55.638;37.356;2023-01-30T02:18:36;98067.38;;;-1.45;96.22
58239;BME280;44037;55.638;37.356;2023-01-30T02:27:19;98052.22;;;-1.42;96.37
58239;BME280;44037;55.638;37.356;2023-01-30T02:30:09;98051.47;;;-1.40;95.87
58239;BME280;44037;55.638;37.356;2023-01-30T02:32:46;98045.47;;;-1.42;96.07
58239;BME280;44037;55.638;37.356;2023-01-30T02:35:23;98044.59;;;-1.42;96.28
58239;BME280;44037;55.638;37.356;2023-01-30T02:38:02;98038.66;;;-1.43;96.33
58239;BME280;44037;55.638;37.356;2023-01-30T02:40:40;98033.50;;;-1.44;96.06
58239;BME280;44037;55.638;37.356;2023-01-30T02:43:15;98027.69;;;-1.42;95.82
58239;BME280;44037;55.638;37.356;2023-01-30T02:45:49;98023.41;;;-1.43;96.24
58239;BME280;44037;55.638;37.356;2023-01-30T02:48:26;98024.25;;;-1.42;95.84
58239;BME280;44037;55.638;37.356;2023-01-30T02:50:58;98021.69;;;-1.44;95.64
58239;BME280;44037;55.638;37.356;2023-01-30T02:53:29;98027.59;;;-1.45;95.72
58239;BME280;44037;55.638;37.356;2023-01-30T02:55:57;98019.03;;;-1.47;95.45
58239;BME280;44037;55.638;37.356;2023-01-30T02:58:26;98016.50;;;-1.47;95.17
58239;BME280;44037;55.638;37.356;2023-01-30T03:01:08;98014.78;;;-1.48;95.52
58239;BME280;44037;55.638;37.356;2023-01-30T03:04:20;98010.63;;;-1.46;95.29
58239;BME280;44037;55.638;37.356;2023-01-30T03:07:04;97998.72;;;-1.47;95.44
58239;BME280;44037;55.638;37.356;2023-01-30T03:09:41;98001.38;;;-1.44;95.74
58239;BME280;44037;55.638;37.356;2023-01-30T03:12:15;97988.66;;;-1.44;95.32
58239;BME280;44037;55.638;37.356;2023-01-30T03:14:47;97980.16;;;-1.44;95.61
58239;BME280;44037;55.638;37.356;2023-01-30T03:17:18;97972.59;;;-1.43;95.50
58239;BME280;44037;55.638;37.356;2023-01-30T03:19:48;97970.06;;;-1.43;94.77
58239;BME280;44037;55.638;37.356;2023-01-30T03:22:15;97971.72;;;-1.43;95.01
58239;BME280;44037;55.638;37.356;2023-01-30T03:24:42;97954.81;;;-1.43;95.19
58239;BME280;44037;55.638;37.356;2023-01-30T03:27:10;97970.88;;;-1.44;95.30
58239;BME280;44037;55.638;37.356;2023-01-30T03:29:38;97969.16;;;-1.45;94.83
58239;BME280;44037;55.638;37.356;2023-01-30T03:32:06;97960.69;;;-1.45;94.78
58239;BME280;44037;55.638;37.356;2023-01-30T03:34:33;97946.25;;;-1.46;94.79
58239;BME280;44037;55.638;37.356;2023-01-30T03:37:01;97941.16;;;-1.46;94.92
58239;BME280;44037;55.638;37.356;2023-01-30T03:39:29;97936.94;;;-1.46;95.01
58239;BME280;44037;55.638;37.356;2023-01-30T03:41:56;97938.69;;;-1.43;94.54
58239;BME280;44037;55.638;37.356;2023-01-30T03:44:23;97936.97;;;-1.44;94.71
58239;BME280;44037;55.638;37.356;2023-01-30T03:46:50;97931.88;;;-1.44;94.64
58239;BME280;44037;55.638;37.356;2023-01-30T03:49:17;97942.00;;;-1.46;94.50
58239;BME280;44037;55.638;37.356;2023-01-30T03:51:45;97926.75;;;-1.47;94.45
58239;BME280;44037;55.638;37.356;2023-01-30T03:54:13;97933.47;;;-1.48;94.14
58239;BME280;44037;55.638;37.356;2023-01-30T03:56:40;97936.91;;;-1.47;94.09
58239;BME280;44037;55.638;37.356;2023-01-30T03:59:07;97932.63;;;-1.48;93.98
58239;BME280;44037;55.638;37.356;2023-01-30T04:01:34;97922.41;;;-1.50;94.20
58239;BME280;44037;55.638;37.356;2023-01-30T04:04:01;97919.84;;;-1.51;94.10
58239;BME280;44037;55.638;37.356;2023-01-30T04:06:28;97920.69;;;-1.51;94.38
58239;BME280;44037;55.638;37.356;2023-01-30T04:08:56;97912.19;;;-1.53;93.20
58239;BME280;44037;55.638;37.356;2023-01-30T04:11:24;97907.91;;;-1.54;93.75
58239;BME280;44037;55.638;37.356;2023-01-30T04:13:57;97894.41;;;-1.53;93.85
58239;BME280;44037;55.638;37.356;2023-01-30T04:16:25;97897.81;;;-1.51;93.77
58239;BME280;44037;55.638;37.356;2023-01-30T04:18:53;97885.13;;;-1.51;93.63
58239;BME280;44037;55.638;37.356;2023-01-30T04:21:20;97885.19;;;-1.49;93.80
58239;BME280;44037;55.638;37.356;2023-01-30T04:23:47;97875.88;;;-1.49;93.61
58239;BME280;44037;55.638;37.356;2023-01-30T04:26:14;97879.22;;;-1.50;93.42
58239;BME280;44037;55.638;37.356;2023-01-30T04:28:43;97877.50;;;-1.51;93.47
58239;BME280;44037;55.638;37.356;2023-01-30T04:31:10;97871.56;;;-1.51;93.86
58239;BME280;44037;55.638;37.356;2023-01-30T04:33:37;97874.94;;;-1.51;93.78
58239;BME280;44037;55.638;37.356;2023-01-30T04:36:06;97866.59;;;-1.48;93.88
58239;BME280;44037;55.638;37.356;2023-01-30T04:38:34;97864.88;;;-1.48;93.84
58239;BME280;44037;55.638;37.356;2023-01-30T04:41:02;97865.69;;;-1.49;93.40
58239;BME280;44037;55.638;37.356;2023-01-30T04:43:29;97869.94;;;-1.49;93.15
58239;BME280;44037;55.638;37.356;2023-01-30T04:45:58;97863.16;;;-1.49;92.96
58239;BME280;44037;55.638;37.356;2023-01-30T04:48:25;97863.22;;;-1.47;93.98
58239;BME280;44037;55.638;37.356;2023-01-30T04:50:54;97864.94;;;-1.46;93.60
58239;BME280;44037;55.638;37.356;2023-01-30T04:53:21;97851.44;;;-1.45;93.47
58239;BME280;44037;55.638;37.356;2023-01-30T04:55:48;97848.81;;;-1.47;93.39
58239;BME280;44037;55.638;37.356;2023-01-30T04:58:16;97847.19;;;-1.45;93.31
58239;BME280;44037;55.638;37.356;2023-01-30T05:00:44;97840.50;;;-1.43;93.55
58239;BME280;44037;55.638;37.356;2023-01-30T05:03:12;97833.66;;;-1.45;93.21
58239;BME280;44037;55.638;37.356;2023-01-30T05:05:40;97826.78;;;-1.48;93.17
58239;BME280;44037;55.638;37.356;2023-01-30T05:08:07;97822.50;;;-1.49;92.63
58239;BME280;44037;55.638;37.356;2023-01-30T05:10:34;97815.78;;;-1.48;93.15
58239;BME280;44037;55.638;37.356;2023-01-30T05:13:01;97816.63;;;-1.48;92.57
58239;BME280;44037;55.638;37.356;2023-01-30T05:15:28;97801.34;;;-1.49;92.91
58239;BME280;44037;55.638;37.356;2023-01-30T05:17:55;97803.06;;;-1.48;93.13
58239;BME280;44037;55.638;37.356;2023-01-30T05:20:24;97799.75;;;-1.46;93.09
58239;BME280;44037;55.638;37.356;2023-01-30T05:22:51;97800.66;;;-1.44;92.82
58239;BME280;44037;55.638;37.356;2023-01-30T05:25:18;97798.09;;;-1.45;92.53
58239;BME280;44037;55.638;37.356;2023-01-30T05:27:45;97799.84;;;-1.43;93.12
58239;BME280;44037;55.638;37.356;2023-01-30T05:30:13;97787.13;;;-1.43;92.89
58239;BME280;44037;55.638;37.356;2023-01-30T05:32:40;97784.59;;;-1.43;92.64
58239;BME280;44037;55.638;37.356;2023-01-30T05:35:07;97778.69;;;-1.42;93.17
58239;BME280;44037;55.638;37.356;2023-01-30T05:37:36;97779.53;;;-1.41;92.45
58239;BME280;44037;55.638;37.356;2023-01-30T05:40:04;97781.22;;;-1.42;92.66
58239;BME280;44037;55.638;37.356;2023-01-30T05:42:32;97784.69;;;-1.40;92.47
58239;BME280;44037;55.638;37.356;2023-01-30T05:44:59;97775.38;;;-1.39;92.47
58239;BME280;44037;55.638;37.356;2023-01-30T05:47:26;97771.22;;;-1.35;92.62
58239;BME280;44037;55.638;37.356;2023-01-30T05:49:53;97762.78;;;-1.34;92.58
58239;BME280;44037;55.638;37.356;2023-01-30T05:52:20;97767.84;;;-1.36;92.11
58239;BME280;44037;55.638;37.356;2023-01-30T05:54:48;97756.75;;;-1.38;92.03
58239;BME280;44037;55.638;37.356;2023-01-30T05:57:15;97747.44;;;-1.37;91.75
58239;BME280;44037;55.638;37.356;2023-01-30T05:59:42;97750.03;;;-1.36;92.22
58239;BME280;44037;55.638;37.356;2023-01-30T06:02:09;97740.78;;;-1.34;91.82
58239;BME280;44037;55.638;37.356;2023-01-30T06:04:36;97745.00;;;-1.34;91.66
58239;BME280;44037;55.638;37.356;2023-01-30T06:07:03;97750.94;;;-1.34;91.78
58239;BME280;44037;55.638;37.356;2023-01-30T06:09:30;97747.63;;;-1.31;91.66
58239;BME280;44037;55.638;37.356;2023-01-30T06:11:59;97741.72;;;-1.30;91.35
58239;BME280;44037;55.638;37.356;2023-01-30T06:14:26;97735.81;;;-1.29;91.55
58239;BME280;44037;55.638;37.356;2023-01-30T06:16:53;97738.44;;;-1.26;91.74
58239;BME280;44037;55.638;37.356;2023-01-30T06:19:20;97741.00;;;-1.26;91.73
58239;BME280;44037;55.638;37.356;2023-01-30T06:21:47;97741.88;;;-1.24;91.13
58239;BME280;44037;55.638;37.356;2023-01-30T06:24:14;97746.13;;;-1.23;92.01
58239;BME280;44037;55.638;37.356;2023-01-30T06:26:41;97741.13;;;-1.20;91.58
58239;BME280;44037;55.638;37.356;2023-01-30T06:29:10;97746.28;;;-1.17;91.60
58239;BME280;44037;55.638;37.356;2023-01-30T06:31:37;97745.50;;;-1.14;91.54
58239;BME280;44037;55.638;37.356;2023-01-30T06:34:04;97749.78;;;-1.12;91.59
58239;BME280;44037;55.638;37.356;2023-01-30T06:36:31;97744.81;;;-1.07;91.86
58239;BME280;44037;55.638;37.356;2023-01-30T06:38:58;97737.19;;;-1.07;91.15
58239;BME280;44037;55.638;37.356;2023-01-30T06:41:25;97735.53;;;-1.06;91.00
58239;BME280;44037;55.638;37.356;2023-01-30T06:43:52;97738.09;;;-1.05;91.60
58239;BME280;44037;55.638;37.356;2023-01-30T06:46:21;97733.97;;;-1.01;91.46
58239;BME280;44037;55.638;37.356;2023-01-30T06:48:48;97738.22;;;-1.00;91.61
58239;BME280;44037;55.638;37.356;2023-01-30T06:51:15;97739.88;;;-1.02;91.54
58239;BME280;44037;55.638;37.356;2023-01-30T06:53:42;97732.19;;;-1.04;91.11
58239;BME280;44037;55.638;37.356;2023-01-30T06:56:09;97727.91;;;-1.06;91.04
58239;BME280;44037;55.638;37.356;2023-01-30T06:58:36;97733.06;;;-1.03;90.93
58239;BME280;44037;55.638;37.356;2023-01-30T07:01:04;97735.66;;;-1.00;91.26
58239;BME280;44037;55.638;37.356;2023-01-30T07:03:32;97716.28;;;-0.97;91.27
58239;BME280;44037;55.638;37.356;2023-01-30T07:05:59;97718.06;;;-0.93;91.05
58239;BME280;44037;55.638;37.356;2023-01-30T07:08:26;97721.56;;;-0.89;91.51
58239;BME280;44037;55.638;37.356;2023-01-30T07:10:53;97717.34;;;-0.87;90.84
58239;BME280;44037;55.638;37.356;2023-01-30T07:13:20;97718.25;;;-0.85;91.14
58239;BME280;44037;55.638;37.356;2023-01-30T07:15:47;97708.22;;;-0.79;91.39
58239;BME280;44037;55.638;37.356;2023-01-30T07:18:15;97705.78;;;-0.74;91.00
58239;BME280;44037;55.638;37.356;2023-01-30T07:20:46;97701.63;;;-0.70;90.79
58239;BME280;44037;55.638;37.356;2023-01-30T07:23:13;97697.44;;;-0.68;90.72
58239;BME280;44037;55.638;37.356;2023-01-30T07:25:41;97691.53;;;-0.67;90.56
58239;BME280;44037;55.638;37.356;2023-01-30T07:28:08;97694.19;;;-0.63;90.88
58239;BME280;44037;55.638;37.356;2023-01-30T07:30:36;97693.44;;;-0.57;90.85
58239;BME280;44037;55.638;37.356;2023-01-30T07:33:04;97684.19;;;-0.53;90.71
58239;BME280;44037;55.638;37.356;2023-01-30T07:35:33;97683.44;;;-0.49;90.33
58239;BME280;44037;55.638;37.356;2023-01-30T07:38:02;97675.00;;;-0.47;90.11
58239;BME280;44037;55.638;37.356;2023-01-30T07:40:29;97672.53;;;-0.45;89.95
58239;BME280;44037;55.638;37.356;2023-01-30T07:42:58;97671.66;;;-0.44;89.70
58239;BME280;44037;55.638;37.356;2023-01-30T07:45:27;97665.81;;;-0.41;89.59
58239;BME280;44037;55.638;37.356;2023-01-30T07:47:55;97668.38;;;-0.40;89.36
58239;BME280;44037;55.638;37.356;2023-01-30T07:50:22;97658.25;;;-0.38;89.52
58239;BME280;44037;55.638;37.356;2023-01-30T07:52:49;97658.28;;;-0.35;89.33
58239;BME280;44037;55.638;37.356;2023-01-30T07:55:17;97654.97;;;-0.33;89.11
58239;BME280;44037;55.638;37.356;2023-01-30T07:57:44;97654.97;;;-0.33;89.15
58239;BME280;44037;55.638;37.356;2023-01-30T08:00:12;97652.44;;;-0.31;89.12
58239;BME280;44037;55.638;37.356;2023-01-30T08:02:40;97646.59;;;-0.27;88.63
58239;BME280;44037;55.638;37.356;2023-01-30T08:05:07;97644.16;;;-0.21;88.87
58239;BME280;44037;55.638;37.356;2023-01-30T08:07:35;97634.94;;;-0.16;88.78
58239;BME280;44037;55.638;37.356;2023-01-30T08:10:02;97641.78;;;-0.11;88.28
58239;BME280;44037;55.638;37.356;2023-01-30T08:12:31;97641.00;;;-0.09;87.67
58239;BME280;44037;55.638;37.356;2023-01-30T08:14:58;97629.13;;;-0.08;88.12
58239;BME280;44037;55.638;37.356;2023-01-30T08:17:25;97634.25;;;-0.07;87.96
58239;BME280;44037;55.638;37.356;2023-01-30T08:19:52;97627.41;;;-0.09;87.79
58239;BME280;44037;55.638;37.356;2023-01-30T08:22:19;97622.34;;;-0.08;87.86
58239;BME280;44037;55.638;37.356;2023-01-30T08:24:46;97621.63;;;-0.01;88.51
58239;BME280;44037;55.638;37.356;2023-01-30T08:27:13;97625.09;;;0.03;87.95
58239;BME280;44037;55.638;37.356;2023-01-30T08:29:42;97618.34;;;0.05;87.85
58239;BME280;44037;55.638;37.356;2023-01-30T08:32:09;97614.16;;;0.09;87.78
58239;BME280;44037;55.638;37.356;2023-01-30T08:34:36;97610.00;;;0.12;87.48
58239;BME280;44037;55.638;37.356;2023-01-30T08:37:03;97603.31;;;0.19;87.56
58239;BME280;44037;55.638;37.356;2023-01-30T08:39:31;97599.16;;;0.24;87.67
58239;BME280;44037;55.638;37.356;2023-01-30T08:41:58;97599.28;;;0.30;87.32
58239;BME280;44037;55.638;37.356;2023-01-30T08:44:25;97588.22;;;0.30;87.00
58239;BME280;44037;55.638;37.356;2023-01-30T08:46:53;97605.28;;;0.36;87.27
58239;BME280;44037;55.638;37.356;2023-01-30T08:49:20;97593.47;;;0.39;87.37
58239;BME280;44037;55.638;37.356;2023-01-30T08:51:47;97597.72;;;0.40;87.34
58239;BME280;44037;55.638;37.356;2023-01-30T08:54:14;97596.06;;;0.42;87.06
58239;BME280;44037;55.638;37.356;2023-01-30T08:56:41;97588.41;;;0.42;86.77
58239;BME280;44037;55.638;37.356;2023-01-30T08:59:08;97584.97;;;0.40;87.57
58239;BME280;44037;55.638;37.356;2023-01-30T09:01:35;97582.44;;;0.40;87.29
58239;BME280;44037;55.638;37.356;2023-01-30T09:04:05;97573.06;;;0.38;86.56
58239;BME280;44037;55.638;37.356;2023-01-30T09:06:32;97567.91;;;0.35;86.58
58239;BME280;44037;55.638;37.356;2023-01-30T09:08:59;97569.66;;;0.37;86.76
58239;BME280;44037;55.638;37.356;2023-01-30T09:11:26;97574.75;;;0.37;86.76
58239;BME280;44037;55.638;37.356;2023-01-30T09:13:53;97562.88;;;0.39;86.62
58239;BME280;44037;55.638;37.356;2023-01-30T09:16:20;97557.78;;;0.38;86.43
58239;BME280;44037;55.638;37.356;2023-01-30T09:18:48;97564.56;;;0.37;86.44
58239;BME280;44037;55.638;37.356;2023-01-30T09:21:16;97559.50;;;0.39;86.40
58239;BME280;44037;55.638;37.356;2023-01-30T09:23:43;97550.13;;;0.36;86.10
58239;BME280;44037;55.638;37.356;2023-01-30T09:26:10;97545.09;;;0.41;86.68
58239;BME280;44037;55.638;37.356;2023-01-30T09:28:37;97535.78;;;0.44;86.76
58239;BME280;44037;55.638;37.356;2023-01-30T09:31:04;97544.31;;;0.47;86.74
58239;BME280;44037;55.638;37.356;2023-01-30T09:33:31;97536.75;;;0.53;86.44
58239;BME280;44037;55.638;37.356;2023-01-30T09:35:58;97540.19;;;0.55;86.66
58239;BME280;44037;55.638;37.356;2023-01-30T09:38:27;97536.94;;;0.64;86.39
58239;BME280;44037;55.638;37.356;2023-01-30T09:41:16;97519.16;;;0.67;86.14
58239;BME280;44037;55.638;37.356;2023-01-30T09:44:16;97516.56;;;0.65;85.41
58239;BME280;44037;55.638;37.356;2023-01-30T09:46:52;97517.38;;;0.61;85.56
58239;BME280;44037;55.638;37.356;2023-01-30T09:49:32;97509.72;;;0.61;85.99
58239;BME280;44037;55.638;37.356;2023-01-30T09:52:10;97509.72;;;0.63;85.95
58239;BME280;44037;55.638;37.356;2023-01-30T09:54:44;97497.88;;;0.65;85.76
58239;BME280;44037;55.638;37.356;2023-01-30T09:57:15;97487.72;;;0.68;85.38
58239;BME280;44037;55.638;37.356;2023-01-30T09:59:51;97485.13;;;0.66;85.37
58239;BME280;44037;55.638;37.356;2023-01-30T10:02:30;97497.06;;;0.67;85.24
58239;BME280;44037;55.638;37.356;2023-01-30T10:05:00;97469.06;;;0.69;85.24
58239;BME280;44037;55.638;37.356;2023-01-30T10:07:43;97475.84;;;0.70;85.20
58239;BME280;44037;55.638;37.356;2023-01-30T10:10:19;97469.06;;;0.72;85.31
58239;BME280;44037;55.638;37.356;2023-01-30T10:12:57;97458.06;;;0.74;84.86
58239;BME280;44037;55.638;37.356;2023-01-30T10:15:33;97476.81;;;0.78;84.92
58239;BME280;44037;55.638;37.356;2023-01-30T10:20:51;97461.47;;;0.76;84.85
58239;BME280;44037;55.638;37.356;2023-01-30T10:23:38;97460.63;;;0.74;84.01
58239;BME280;44037;55.638;37.356;2023-01-30T10:26:13;97460.53;;;0.70;84.44
58239;BME280;44037;55.638;37.356;2023-01-30T10:28:43;97455.38;;;0.65;84.69
58239;BME280;44037;55.638;37.356;2023-01-30T10:31:14;97453.66;;;0.64;84.45
58239;BME280;44037;55.638;37.356;2023-01-30T10:33:43;97444.28;;;0.60;84.46
58239;BME280;44037;55.638;37.356;2023-01-30T10:36:19;97446.84;;;0.60;84.39
58239;BME280;44037;55.638;37.356;2023-01-30T10:38:51;97446.91;;;0.66;84.70
58239;BME280;44037;55.638;37.356;2023-01-30T10:41:25;97433.38;;;0.69;84.15
58239;BME280;44037;55.638;37.356;2023-01-30T10:43:59;97439.31;;;0.69;84.01
58239;BME280;44037;55.638;37.356;2023-01-30T10:46:50;97429.94;;;0.70;84.25
58239;BME280;44037;55.638;37.356;2023-01-30T10:49:38;97430.00;;;0.71;84.29
58239;BME280;44037;55.638;37.356;2023-01-30T10:52:17;97418.97;;;0.74;84.14
58239;BME280;44037;55.638;37.356;2023-01-30T10:54:58;97422.38;;;0.74;84.18
58239;BME280;44037;55.638;37.356;2023-01-30T10:57:38;97417.31;;;0.77;83.71
58239;BME280;44037;55.638;37.356;2023-01-30T11:00:16;97410.50;;;0.76;83.68
58239;BME280;44037;55.638;37.356;2023-01-30T11:02:57;97407.88;;;0.72;83.55
58239;BME280;44037;55.638;37.356;2023-01-30T11:05:27;97408.72;;;0.71;83.66
58239;BME280;44037;55.638;37.356;2023-01-30T11:07:56;97401.06;;;0.71;83.80
58239;BME280;44037;55.638;37.356;2023-01-30T11:10:25;97401.06;;;0.69;83.80
58239;BME280;44037;55.638;37.356;2023-01-30T11:12:54;97398.50;;;0.68;83.83
58239;BME280;44037;55.638;37.356;2023-01-30T11:15:23;97393.38;;;0.66;83.53
58239;BME280;44037;55.638;37.356;2023-01-30T11:18:03;97381.47;;;0.65;83.87
58239;BME280;44037;55.638;37.356;2023-01-30T11:20:38;97388.28;;;0.65;83.63
58239;BME280;44037;55.638;37.356;2023-01-30T11:23:07;97388.28;;;0.66;83.71
58239;BME280;44037;55.638;37.356;2023-01-30T11:25:47;97362.78;;;0.66;83.92
58239;BME280;44037;55.638;37.356;2023-01-30T11:28:16;97380.69;;;0.71;84.15
58239;BME280;44037;55.638;37.356;2023-01-30T11:30:49;97375.66;;;0.75;83.89
58239;BME280;44037;55.638;37.356;2023-01-30T11:33:18;97365.53;;;0.82;83.61
58239;BME280;44037;55.638;37.356;2023-01-30T11:35:52;97368.16;;;0.88;83.46
58239;BME280;44037;55.638;37.356;2023-01-30T11:38:23;97364.78;;;0.90;83.48
58239;BME280;44037;55.638;37.356;2023-01-30T11:41:04;97358.84;;;0.93;83.52
58239;BME280;44037;55.638;37.356;2023-01-30T11:43:34;97352.06;;;0.94;83.53
58239;BME280;44037;55.638;37.356;2023-01-30T11:46:04;97354.66;;;0.98;84.10
58239;BME280;44037;55.638;37.356;2023-01-30T11:48:34;97358.09;;;1.00;84.09
58239;BME280;44037;55.638;37.356;2023-01-30T11:51:08;97357.22;;;1.01;83.56
58239;BME280;44037;55.638;37.356;2023-01-30T11:53:38;97361.50;;;1.01;83.60
58239;BME280;44037;55.638;37.356;2023-01-30T11:56:11;97349.56;;;1.00;83.78
58239;BME280;44037;55.638;37.356;2023-01-30T11:58:42;97354.69;;;1.01;83.81
58239;BME280;44037;55.638;37.356;2023-01-30T12:01:13;97345.34;;;1.02;84.01
58239;BME280;44037;55.638;37.356;2023-01-30T12:03:47;97348.72;;;0.99;83.76
58239;BME280;44037;55.638;37.356;2023-01-30T12:06:24;97344.44;;;0.95;83.77
58239;BME280;44037;55.638;37.356;2023-01-30T12:08:55;97332.50;;;0.94;84.03
58239;BME280;44037;55.638;37.356;2023-01-30T12:11:41;97343.50;;;0.88;83.89
58239;BME280;44037;55.638;37.356;2023-01-30T12:14:20;97340.06;;;0.85;83.82
58239;BME280;44037;55.638;37.356;2023-01-30T12:17:01;97336.66;;;0.81;84.04
58239;BME280;44037;55.638;37.356;2023-01-30T12:19:41;97330.66;;;0.81;84.56
58239;BME280;44037;55.638;37.356;2023-01-30T12:22:19;97328.91;;;0.76;83.82
58239;BME280;44037;55.638;37.356;2023-01-30T12:24:56;97327.09;;;0.65;84.10
58239;BME280;44037;55.638;37.356;2023-01-30T12:27:34;97322.75;;;0.54;84.43
58239;BME280;44037;55.638;37.356;2023-01-30T12:30:20;97317.56;;;0.47;84.50
58239;BME280;44037;55.638;37.356;2023-01-30T12:32:53;97310.72;;;0.44;85.22
58239;BME280;44037;55.638;37.356;2023-01-30T12:35:27;97314.91;;;0.40;85.67
58239;BME280;44037;55.638;37.356;2023-01-30T12:38:03;97303.78;;;0.34;85.67
58239;BME280;44037;55.638;37.356;2023-01-30T12:40:42;97296.97;;;0.33;86.07
58239;BME280;44037;55.638;37.356;2023-01-30T12:43:27;97306.28;;;0.29;86.35
58239;BME280;44037;55.638;37.356;2023-01-30T12:46:06;97292.66;;;0.27;86.92
58239;BME280;44037;55.638;37.356;2023-01-30T12:48:49;97298.59;;;0.24;87.07
58239;BME280;44037;55.638;37.356;2023-01-30T12:51:31;97287.47;;;0.18;87.31
58239;BME280;44037;55.638;37.356;2023-01-30T12:54:09;97290.78;;;0.10;88.10
58239;BME280;44037;55.638;37.356;2023-01-30T12:56:53;97285.53;;;0.01;89.29
58239;BME280;44037;55.638;37.356;2023-01-30T12:59:28;97276.13;;;-0.08;90.34
58239;BME280;44037;55.638;37.356;2023-01-30T13:02:15;97280.22;;;-0.18;91.14
58239;BME280;44037;55.638;37.356;2023-01-30T13:04:53;97280.09;;;-0.25;92.56
58239;BME280;44037;55.638;37.356;2023-01-30T13:07:25;97274.94;;;-0.30;93.36
58239;BME280;44037;55.638;37.356;2023-01-30T13:10:05;97266.38;;;-0.35;94.35
58239;BME280;44037;55.638;37.356;2023-01-30T13:12:39;97271.47;;;-0.35;95.39
58239;BME280;44037;55.638;37.356;2023-01-30T13:15:17;97265.50;;;-0.39;95.49
58239;BME280;44037;55.638;37.356;2023-01-30T13:17:57;97264.59;;;-0.42;96.26
58239;BME280;44037;55.638;37.356;2023-01-30T13:20:49;97255.31;;;-0.40;97.29